Weather at Kyzyl-Syr Airport

Public forecast

Using degrees Celsius for public forecast. Weather courtesy of forecast.io.

Closest aviation weather report (METAR) to Kyzyl-Syr Airport

Closest report is Yakutsk Airport, 218.8 nm (405.2 km) ESE. Retrieved 2021/06/21 10:30 UTC (13 seconds ago):

UEEE 211030Z 25002MPS 9999 FEW050CB 32/10 Q1000 R23L/09//70 NOSIG RMK QFE741

Closest aviation forecast (TAF) to Kyzyl-Syr Airport

Closest forecast is Yakutsk Airport, 218.8 nm (405.2 km) ESE. Retrieved 2021/06/21 09:22 UTC (1 hour ago):

TAF UEEE 210800Z 2109/2215 31005G10MPS 9999 SCT030CB BKN100 TX30/2109Z TN15/2117Z TEMPO 2109/2115 VRB18MPS 3200 -TSGRRA